Thea, Argentina
Current Conditions -  °F | °C
As of 9:00 PM on Sunday 21 Dec 2014 (Local Time) from SACO Reporting Station
Broken Clouds Broken Clouds  
Wind Chill: 63°   Ceiling: 10000
Heat Index: 63°   Visibility: 6mi
Dew Point: 28°   Wind: 12mph
Humidity: 27%   Direction: 180°S
Pressure: 30.09"   Gusts: NA
Location:  31.05°S, 64.52°W
Report Text: SACO 220000Z 18010KT 9999 FEW012 FEW025BKN100 17/M02 Q1019
Loading
Personal Weather Stations






























Interactive Weather Map New forecast layout! Learn more

10-Day Weather Forecast

Advertisements
Track Severe Weather on mobile